Date,TemperatureHighF,TemperatureAvgF,TemperatureLowF,DewpointHighF,DewpointAvgF,DewpointLowF,HumidityHigh,HumidityAvg,HumidityLow,PressureMaxIn,PressureMinIn,WindSpeedMaxMPH,WindSpeedAvgMPH,GustSpeedMaxMPH,PrecipitationSumIn
2013-1-2,32.8,29.4,20.7,20.9,18.4,14.2,76,63,56,29.94,29.77,6,2,11,0.00
2013-1-3,33.9,24.5,15.2,20.8,16.2,9.6,79,71,55,29.97,29.85,3,0,10,0.00
2013-1-4,38.9,35.5,33.5,27.7,25.5,23.7,74,67,58,29.83,29.70,8,3,13,0.00
2013-1-5,44.8,36.9,30.1,29.0,25.7,22.3,83,64,52,30.04,29.78,5,2,9,0.00
2013-1-6,47.5,38.6,32.5,34.6,30.5,26.7,89,73,56,29.99,29.73,5,1,6,0.00
2013-1-7,46.7,37.8,28.8,33.1,28.3,23.1,85,70,48,30.16,29.82,3,0,7,0.00
2013-1-8,49.7,39.2,28.7,35.5,31.0,23.7,90,73,58,30.19,30.09,6,1,9,0.00
2013-1-9,48.0,39.1,28.4,40.2,33.8,26.6,93,82,67,30.16,29.91,7,2,13,0.00
2013-1-10,50.4,43.4,35.8,35.6,29.7,27.9,73,59,44,30.31,30.00,4,1,12,0.00
2013-1-11,42.1,37.9,32.1,39.7,33.5,27.4,98,84,72,30.31,29.89,1,0,2,0.32
2013-1-12,47.0,44.5,40.4,46.2,44.1,39.9,99,98,97,29.95,29.87,1,0,1,0.02
2013-1-13,48.1,45.9,44.3,48.1,45.8,44.0,100,100,99,29.93,29.79,1,0,7,0.02
2013-1-14,56.3,49.0,37.7,53.5,45.0,34.6,100,87,59,30.08,29.69,3,1,7,0.12
2013-1-15,39.0,36.9,35.0,34.6,30.8,28.3,94,79,68,30.12,30.00,1,0,2,0.10
2013-1-16,35.1,32.7,31.9,32.6,31.4,30.8,97,95,84,30.02,29.71,1,0,2,0.00
2013-1-17,44.1,39.6,33.5,33.0,30.5,25.6,75,70,62,29.86,29.80,3,1,4,0.34
2013-1-18,32.1,27.8,24.1,25.1,15.0,10.3,75,59,44,30.24,29.80,3,1,4,0.01
2013-1-19,49.4,38.5,27.9,33.3,26.5,16.6,74,62,51,30.16,29.69,6,3,11,0.05
2013-1-20,53.0,42.4,30.1,35.3,27.8,15.7,79,58,32,29.80,29.45,14,4,19,0.00
2013-1-21,31.2,28.4,24.2,21.9,17.2,12.9,79,63,52,29.86,29.61,3,0,5,0.00
2013-1-22,26.7,22.1,19.3,20.5,9.6,4.0,77,58,46,29.80,29.60,9,2,10,0.00
2013-1-23,17.9,16.4,14.8,1.5,0.7,0.1,55,50,45,30.01,29.99,4,3,9,0.00
2013-1-24,16.0,15.4,14.7,6.0,5.8,5.7,67,66,64,30.00,29.99,1,0,1,0.00
2013-1-25,24.6,22.0,17.4,9.0,7.8,7.0,64,54,50,30.17,29.96,2,1,3,0.00
2013-1-29,48.5,45.5,41.0,45.1,42.9,40.6,99,91,81,29.91,29.87,3,1,3,0.03
2013-1-30,56.7,52.1,40.1,56.4,51.5,39.8,100,98,94,29.66,29.15,4,1,8,0.16
2013-1-31,61.6,56.0,46.0,60.7,52.2,32.0,99,88,58,29.12,28.82,15,8,20,0.89
2013-2-1,30.0,28.9,28.0,17.4,15.9,14.8,64,58,54,29.65,29.62,4,3,12,0.00
2013-2-4,30.0,28.2,26.9,14.1,13.8,13.3,58,54,51,29.72,29.71,7,4,18,0.00
2013-2-5,30.8,29.6,27.6,27.9,26.2,24.7,93,87,82,29.75,29.68,1,0,5,0.01
2013-2-6,40.5,33.0,27.5,29.2,23.2,8.1,96,70,40,30.12,29.70,7,1,10,0.01
2013-2-7,31.7,26.1,21.9,15.2,12.2,7.9,69,56,42,30.28,30.12,1,0,1,0.00
2013-2-8,33.8,31.6,27.1,32.3,30.6,26.4,97,96,94,29.86,29.42,6,3,11,0.03
2013-2-9,33.7,27.8,20.8,27.5,20.5,9.5,97,76,51,30.11,29.53,5,2,6,0.27
2013-2-10,37.7,25.4,12.7,21.4,13.3,7.4,81,61,37,30.26,30.10,1,0,3,0.10
2013-2-11,41.2,35.6,27.6,40.7,33.6,21.1,99,93,75,30.10,29.45,1,0,2,0.21
2013-2-12,41.1,39.4,37.8,38.8,34.8,31.7,99,84,69,29.61,29.49,3,1,4,0.00
2013-2-13,43.2,40.4,35.3,29.5,28.3,27.4,77,62,57,29.67,29.55,1,1,2,0.00
2013-2-19,42.7,8.5,42.2,41.4,-71.8,-99.9,95,19,93,29.61,29.45,1,-799,1,0.16
2013-2-20,32.8,10.7,31.7,18.1,-61.2,-99.9,56,17,49,29.61,29.48,8,-664,10,0.00
2013-2-21,33.7,11.1,28.6,18.2,-58.9,-99.9,58,19,52,30.07,29.76,6,-648,9,0.00
2013-2-22,37.7,7.4,30.7,25.5,-78.3,-99.9,69,11,61,30.17,30.04,1,-782,6,0.00
2013-2-25,45.1,43.4,39.6,32.3,31.3,30.5,72,62,58,29.91,29.89,2,1,2,0.00
2013-2-27,47.1,44.2,40.2,45.5,42.3,37.4,98,93,86,29.43,29.27,9,3,14,0.71
2013-2-28,46.9,42.2,39.7,41.4,37.2,34.1,94,83,69,29.40,29.32,2,0,4,0.00
2013-3-1,43.9,38.8,32.6,34.9,31.9,27.8,90,76,61,29.55,29.38,2,0,3,0.00
2013-3-2,40.7,36.6,31.3,29.2,27.8,26.5,89,71,61,29.55,29.47,3,1,5,0.00
2013-3-3,42.3,33.4,29.6,26.3,23.2,20.7,81,66,52,29.53,29.43,4,1,5,0.00
2013-3-4,40.1,32.4,27.9,26.2,22.6,19.1,75,67,56,29.58,29.53,7,2,10,0.00
2013-3-5,48.3,43.1,37.9,31.1,29.5,27.5,66,59,51,29.78,29.75,2,1,3,0.00
2013-3-6,42.5,41.0,39.5,38.1,33.6,30.5,86,75,69,29.74,29.66,8,6,21,0.01
2013-3-7,39.3,37.3,34.2,33.7,31.2,29.4,90,79,70,29.80,29.71,7,4,8,0.00
2013-3-11,55.0,50.9,42.8,49.4,46.3,40.4,93,84,73,30.02,29.87,3,2,9,0.00
2013-3-12,55.6,51.7,44.1,55.3,49.9,39.6,99,94,83,29.86,29.44,6,3,11,1.09
2013-3-13,50.2,43.2,36.9,39.0,33.7,28.3,89,71,43,29.66,29.56,6,1,8,0.00
2013-3-14,37.9,34.0,30.7,29.7,22.6,16.0,72,63,54,29.68,29.64,6,3,7,0.00
2013-3-15,40.7,40.6,40.5,24.9,24.5,24.2,53,52,52,29.60,29.59,8,8,10,0.00
2013-3-18,30.3,29.3,28.3,13.9,13.7,13.3,53,52,50,30.18,30.17,2,1,2,0.00
2013-3-19,39.0,36.3,34.9,37.7,35.7,34.4,98,98,95,29.56,29.48,1,1,5,0.46
2013-3-20,36.1,35.3,34.2,24.4,24.1,23.5,67,64,60,29.64,29.63,8,6,12,0.00
2013-3-21,41.1,36.1,32.4,22.4,19.0,16.8,60,50,42,29.53,29.40,3,1,5,0.00
2013-3-22,41.1,34.9,28.3,25.6,22.2,17.3,73,60,50,29.65,29.50,7,2,12,0.00
2013-3-23,46.0,38.9,32.9,28.0,24.6,22.3,68,57,44,29.70,29.59,8,3,17,0.00
2013-3-24,47.9,39.7,29.3,28.7,26.2,22.6,77,59,47,29.72,29.50,2,0,4,0.00
2013-3-25,44.0,40.4,37.5,36.2,31.3,27.8,86,70,54,29.49,29.24,5,1,5,0.00
2013-3-26,51.3,42.7,35.3,35.2,31.5,28.8,83,66,47,29.64,29.37,4,1,6,0.00
2013-3-27,53.2,43.9,35.6,33.4,30.2,25.7,73,59,40,29.74,29.64,4,1,9,0.00
2013-3-28,51.4,44.6,38.0,37.1,34.0,31.1,79,67,57,29.88,29.73,3,1,4,0.00
2013-3-29,54.7,47.3,39.8,35.4,33.1,31.8,75,58,44,29.91,29.83,4,1,7,0.00
2013-3-30,60.1,47.8,34.4,35.5,30.6,24.8,86,55,31,29.94,29.84,4,1,5,0.00
2013-3-31,56.3,45.4,33.5,45.0,36.3,27.9,97,72,42,29.90,29.46,6,2,7,0.16
2013-4-1,61.7,47.7,37.6,48.6,39.3,18.0,99,76,42,29.68,29.38,9,2,12,0.01
2013-4-2,36.9,34.1,31.9,20.7,19.3,17.5,63,55,45,29.78,29.69,8,2,10,0.00
2013-4-3,47.5,40.9,35.1,21.3,18.7,16.9,52,41,33,30.08,29.87,8,4,12,0.00
2013-4-4,37.9,33.9,30.6,22.7,19.8,18.6,64,56,50,30.16,30.04,2,0,4,0.00
2013-4-5,45.9,44.8,43.6,33.4,32.9,32.4,67,63,59,29.68,29.66,1,0,3,0.00
2013-4-8,74.2,64.1,47.3,49.1,47.4,45.9,95,56,37,29.85,29.76,4,1,5,0.00
2013-4-9,76.6,42.2,50.9,56.5,2.9,-99.9,93,58,30,29.77,29.67,9,2,12,0.00
2013-4-10,73.3,62.9,52.8,59.7,53.8,45.8,99,74,43,29.73,29.58,3,1,7,0.64
2013-4-11,63.2,55.0,47.3,59.0,49.5,41.0,100,83,61,29.84,29.57,3,1,4,0.02
2013-4-12,47.6,44.6,41.1,41.9,39.4,36.6,94,82,72,29.82,29.59,9,5,13,0.38
2013-4-15,59.3,53.5,47.2,39.9,36.9,33.3,68,54,47,30.15,30.06,3,1,7,0.00
2013-4-16,64.3,56.1,46.2,57.0,50.0,38.6,86,80,69,30.15,29.89,6,1,12,0.00
2013-4-17,70.0,62.0,54.6,58.7,47.6,39.4,92,62,38,30.06,29.89,3,1,5,0.00
2013-4-18,60.5,53.0,48.5,46.7,43.6,39.8,88,71,54,30.12,30.06,5,1,5,0.00
2013-4-19,73.9,68.3,64.1,65.9,63.7,62.0,98,85,75,29.72,29.42,5,3,7,0.18
2013-4-20,64.3,54.0,46.1,63.7,40.4,29.4,98,64,37,30.06,29.46,9,3,10,0.17
2013-4-21,55.2,45.8,36.8,31.1,27.1,23.9,65,49,34,30.39,30.10,2,1,2,0.00
2013-4-22,49.6,43.3,39.9,37.3,34.5,30.5,83,72,52,30.44,30.39,5,1,7,0.00
2013-4-23,52.8,48.1,42.2,44.8,42.1,36.2,90,80,73,30.16,29.89,3,1,5,0.00
2013-4-24,71.5,52.4,38.8,55.4,45.2,37.8,97,79,56,29.89,29.63,6,1,14,0.00
2013-4-29,57.3,56.2,54.2,51.6,50.1,47.6,91,80,73,30.01,29.97,2,1,5,0.04
2013-4-30,68.0,59.9,50.7,49.3,42.7,33.7,86,56,32,30.11,29.99,3,1,3,0.00
2013-5-1,67.4,52.5,42.4,46.1,38.5,34.5,87,62,32,30.22,30.11,3,0,4,0.00
2013-5-2,64.9,64.0,63.0,44.1,43.8,43.6,50,48,46,30.23,30.23,0,0,3,0.00
2013-5-6,55.7,54.8,53.9,50.0,49.9,49.8,86,84,81,30.05,30.05,0,0,0,0.00
2013-5-7,75.2,69.0,62.5,62.6,59.8,53.1,90,73,62,29.94,29.86,2,1,6,0.00
2013-5-8,65.0,61.3,56.0,63.8,60.3,54.9,99,96,90,29.89,29.76,3,0,6,1.28
2013-5-9,71.0,60.5,54.2,63.3,58.6,53.4,100,94,73,29.78,29.66,0,0,1,0.35
2013-5-10,76.3,46.7,53.5,63.7,18.0,-99.9,100,79,48,29.78,29.67,5,1,9,0.00
2013-5-11,70.7,65.0,61.6,66.8,63.7,59.3,100,96,87,29.68,29.49,3,1,3,0.48
2013-5-12,68.4,61.7,51.5,62.0,48.0,32.9,100,65,35,29.70,29.43,9,2,12,0.03
2013-5-13,52.1,47.5,43.3,37.6,34.8,32.6,77,62,49,29.81,29.71,7,2,7,0.00
2013-5-14,55.5,53.7,50.3,37.9,36.9,34.5,61,53,45,29.90,29.88,0,0,1,0.00
2013-5-15,69.0,63.7,60.5,58.5,54.8,46.3,89,73,56,29.75,29.45,3,1,9,0.00
2013-5-16,74.9,40.2,54.7,58.9,-1.1,-99.9,97,64,32,29.60,29.49,6,1,11,0.00
2013-5-17,73.5,65.1,56.3,49.7,47.4,43.4,74,53,41,29.98,29.61,1,0,1,0.00
2013-5-18,69.2,59.5,50.4,58.3,53.0,47.5,97,81,54,30.08,29.98,4,1,6,0.09
2013-5-19,59.4,57.9,56.4,58.8,57.3,55.0,100,98,93,30.10,29.96,1,0,5,0.19
2013-5-20,74.0,42.1,58.3,69.2,8.2,-99.9,100,89,68,29.95,29.74,4,1,6,0.01
2013-5-21,73.6,26.6,64.3,71.1,-34.1,-99.9,100,82,60,29.76,29.60,5,1,7,0.00
2013-5-22,74.4,46.1,59.8,70.5,13.4,-99.9,97,89,77,29.72,29.61,2,1,4,0.00
2013-5-23,73.6,59.3,65.9,72.3,44.2,-99.9,100,96,79,29.66,29.54,5,1,6,3.06
2013-5-24,66.0,56.5,46.7,66.0,55.5,44.9,100,97,89,29.72,29.45,2,0,3,0.27
2013-5-25,55.8,50.0,45.0,48.3,45.1,42.5,98,84,69,29.77,29.67,5,1,8,0.23
2013-5-26,66.4,56.3,47.5,45.8,42.8,40.6,80,62,44,29.97,29.71,6,2,12,0.00
2013-5-27,77.1,55.8,45.1,48.7,32.1,-99.9,84,55,30,30.02,29.89,6,1,9,0.00
2013-5-28,68.3,58.9,51.6,58.7,54.1,46.5,99,85,61,29.99,29.92,2,0,5,0.39
2013-5-29,72.2,32.9,59.0,69.1,-13.0,-99.9,100,87,64,29.92,29.77,5,1,7,0.00
2013-5-30,74.6,-0.3,-90.0,69.9,-61.1,-99.9,94,69,45,29.90,29.83,5,1,5,0.00
2013-5-31,75.1,19.4,69.6,69.9,-54.5,-99.9,92,70,47,29.90,29.76,4,1,6,0.00
2013-6-1,76.5,18.0,69.4,71.7,-58.1,-99.9,93,72,54,29.80,29.67,5,1,8,0.00
2013-6-2,75.4,19.9,72.1,72.8,-53.5,-99.9,98,78,59,29.69,29.54,7,2,11,0.34
2013-6-3,74.8,47.0,67.5,73.1,11.4,-99.9,100,85,61,29.66,29.59,3,0,4,0.43
2013-6-4,76.1,58.3,56.3,54.0,33.8,-99.9,74,56,40,29.89,29.67,4,0,9,0.00
2013-6-5,75.4,62.4,53.9,55.3,44.4,-99.9,78,60,47,29.99,29.89,2,0,5,0.00
2013-6-6,71.3,63.1,55.1,61.3,57.6,52.4,97,84,54,29.93,29.81,3,1,5,0.19
2013-6-7,62.3,61.0,59.2,62.0,60.6,59.2,100,99,98,29.80,29.44,2,1,6,2.88
2013-6-8,75.2,43.4,56.9,67.1,10.6,-99.9,100,86,69,29.82,29.39,4,1,11,0.32
2013-6-9,74.8,38.1,58.8,65.4,-5.5,-99.9,100,75,49,29.95,29.84,5,1,7,0.00
2013-6-10,71.9,65.6,62.4,68.6,64.3,62.1,99,96,89,29.94,29.63,2,1,14,0.77
2013-6-11,74.5,41.4,62.7,71.8,1.5,-99.9,100,85,68,29.61,29.39,7,2,21,0.05
2013-6-12,74.2,68.8,64.3,61.1,58.6,56.0,77,70,59,29.59,29.49,4,2,20,0.00
2013-6-13,63.6,61.1,56.5,62.2,59.9,55.4,98,96,92,29.52,29.28,4,1,14,0.65
2013-6-14,74.6,56.3,53.5,61.7,43.4,-99.9,99,83,57,29.66,29.33,1,0,11,0.24
2013-6-15,74.4,38.9,58.6,61.9,-4.4,-99.9,95,68,42,29.78,29.67,5,1,14,0.00
2013-6-16,75.1,36.4,58.7,67.8,-10.8,-99.9,89,72,51,29.77,29.55,6,2,16,0.00
2013-6-17,74.6,34.4,65.0,69.6,-17.1,-99.9,99,77,52,29.69,29.60,6,2,14,0.00
2013-6-18,74.0,48.8,63.2,68.8,20.6,-99.9,99,88,62,29.69,29.60,1,0,6,0.30
2013-6-19,75.3,52.8,58.2,62.5,27.3,-99.9,99,71,39,29.94,29.68,1,0,6,0.00
2013-6-20,76.5,43.9,56.2,61.9,8.0,-99.9,97,73,44,30.04,29.95,3,1,11,0.00
2013-6-21,74.8,43.4,59.9,62.3,2.7,-99.9,85,67,51,30.08,30.00,4,1,13,0.00
2013-6-22,75.2,41.1,61.8,64.7,-3.7,-99.9,82,68,51,30.03,29.90,5,1,12,0.00
2013-6-23,74.9,25.3,65.5,69.0,-38.6,-99.9,93,77,57,29.96,29.83,5,2,15,0.00
2013-6-24,75.4,13.5,72.5,72.5,-68.6,-99.9,98,77,47,29.84,29.71,5,1,17,0.00
2013-6-25,72.9,22.2,69.6,70.1,-47.3,-99.9,94,76,54,29.78,29.58,6,2,18,0.00
2013-6-26,75.6,7.8,74.2,72.1,-82.1,-99.9,93,78,69,29.63,29.56,4,1,11,0.00
2013-6-27,74.6,31.0,70.1,72.8,-26.1,-99.9,99,87,67,29.60,29.33,4,1,16,0.56
2013-6-28,75.1,21.7,73.1,74.2,-49.5,-99.9,98,81,59,29.34,29.25,5,2,19,0.06
2013-6-29,75.0,34.6,69.3,71.3,-18.8,-99.9,96,82,60,29.48,29.27,4,1,11,0.00
2013-6-30,74.5,31.2,69.3,73.6,-25.2,-99.9,100,94,78,29.70,29.48,2,0,14,0.18
2013-7-1,75.8,45.5,72.3,74.9,6.8,-99.9,99,98,94,29.83,29.68,1,0,8,0.99
2013-7-2,74.2,24.1,73.5,73.9,-43.4,-99.9,99,94,79,29.95,29.83,2,0,11,0.29
2013-7-3,74.1,-38.9,-90.0,72.6,-65.1,-99.9,99,90,79,30.03,29.95,3,1,11,0.05
2013-7-4,-90.0,-90.0,-90.0,-90.1,-92.6,-95.7,99,82,64,30.04,29.94,6,2,16,0.00
2013-7-5,-90.0,-90.0,-90.0,-90.5,-91.3,-92.5,96,90,82,30.00,29.98,1,0,6,0.00
2013-8-8,75.7,21.1,73.4,73.5,-50.4,-99.9,99,90,78,29.83,29.79,2,0,2,0.33
2013-8-9,75.6,30.8,73.0,74.6,-27.6,-99.9,100,94,73,29.79,29.57,7,1,13,0.27
2013-8-10,74.1,35.6,65.5,73.1,-14.6,-99.9,99,77,51,29.83,29.64,6,1,7,0.00
2013-8-11,74.6,41.3,58.6,66.4,-0.2,-99.9,95,73,51,29.91,29.81,4,1,6,0.00
2013-8-12,74.8,42.8,67.9,69.4,1.5,-99.9,98,78,49,29.81,29.70,2,0,4,0.00
2013-8-13,74.0,51.3,67.8,72.1,23.6,-99.9,100,92,73,29.71,29.48,1,0,3,0.84
2013-8-14,75.2,60.9,57.8,67.0,44.1,-99.9,99,72,53,29.82,29.53,3,1,7,0.00
2013-8-15,75.8,49.1,53.2,59.1,20.5,-99.9,96,70,46,29.92,29.83,5,1,9,0.00
2013-8-16,74.8,48.8,57.4,63.3,21.6,-99.9,96,76,46,29.98,29.90,2,0,3,0.00
2013-8-17,74.9,39.2,58.4,64.6,-3.5,-99.9,96,72,47,30.06,29.99,1,0,3,0.00
2013-8-18,74.6,49.3,64.3,67.3,19.0,-99.9,94,82,66,30.04,29.92,0,0,1,0.00
2013-8-19,74.2,40.3,62.3,67.6,-0.5,-99.9,97,83,63,29.91,29.81,3,1,7,0.00
2013-8-20,72.1,53.4,63.3,69.3,34.5,-99.9,99,93,68,29.91,29.83,0,0,0,0.00
2013-8-27,74.2,12.2,72.0,70.1,-71.6,-99.9,92,72,62,29.68,29.63,0,0,3,0.00
2013-8-28,74.5,41.5,68.4,73.2,-0.6,-99.9,99,90,60,29.68,29.63,4,0,4,0.05
2013-8-29,73.9,45.8,69.2,71.2,9.6,-99.9,100,90,74,29.81,29.67,1,0,2,0.01
2013-8-30,73.2,29.2,69.1,69.8,-29.9,-99.9,95,83,61,29.82,29.64,4,1,7,0.00
2013-8-31,75.5,17.4,73.6,72.7,-59.7,-99.9,94,85,70,29.64,29.57,3,1,6,0.00
2013-9-1,74.9,3.1,74.4,73.7,-92.7,-99.9,98,92,81,29.65,29.58,1,0,1,0.05
2013-9-2,74.4,15.3,72.3,74.1,-63.9,-99.9,100,95,83,29.59,29.50,2,0,4,0.03
2013-9-3,74.0,43.6,65.1,73.6,3.9,-99.9,99,81,51,29.67,29.49,4,0,6,0.02
2013-9-4,74.7,40.1,60.3,63.6,-2.7,-99.9,95,71,45,29.77,29.67,5,1,11,0.00
2013-9-5,75.1,46.9,58.8,64.8,12.1,-99.9,94,68,38,29.94,29.69,1,0,3,0.00
2013-9-6,72.6,62.0,52.9,51.2,48.5,46.6,81,63,44,30.04,29.91,2,0,3,0.00
2013-9-7,75.3,43.0,50.2,59.1,8.0,-99.9,94,67,40,29.90,29.68,4,1,7,0.00
2013-9-8,75.9,43.8,61.1,65.6,1.3,-99.9,82,64,36,29.87,29.60,2,0,6,0.00
2013-9-9,73.1,64.2,52.3,61.4,52.7,47.8,88,67,48,30.02,29.87,4,1,4,0.00
2013-9-10,74.3,33.8,66.6,71.2,-18.6,-99.9,96,85,70,29.93,29.83,4,1,7,0.04
2013-9-11,74.3,3.2,74.2,73.4,-92.4,-99.9,97,78,57,29.90,29.74,5,1,9,0.00
2013-9-12,74.6,7.9,71.5,72.8,-81.5,-99.9,94,86,68,29.76,29.48,3,1,5,0.04
2013-9-13,74.0,53.9,58.0,67.4,28.1,-99.9,100,75,60,29.63,29.43,2,0,4,0.05
2013-9-14,68.9,58.7,49.8,53.8,50.8,47.3,93,76,58,29.90,29.63,3,0,10,0.00
2013-9-15,72.4,59.2,45.0,56.4,50.2,44.2,98,75,46,29.99,29.86,4,0,5,0.00
2013-9-16,73.4,63.0,56.2,60.6,56.6,48.4,96,81,57,30.03,29.81,1,0,1,0.01
2013-9-17,67.6,57.1,48.5,49.5,45.4,41.6,90,66,49,30.21,30.04,2,0,2,0.00
2013-9-18,73.4,58.2,44.1,53.6,49.0,43.3,98,75,41,30.13,29.96,3,0,7,0.00
2013-9-19,74.5,46.2,47.8,57.4,20.2,-99.9,98,76,42,29.97,29.84,3,0,4,0.00
2013-9-20,75.1,46.6,52.9,63.4,19.8,-99.9,99,80,50,29.87,29.77,2,0,5,0.00
2013-9-21,74.9,54.3,55.2,69.2,35.8,-99.9,99,90,71,29.79,29.45,5,1,11,0.30
2013-9-22,69.2,63.2,54.3,68.6,55.5,45.1,99,77,55,29.69,29.43,5,0,8,0.38
2013-9-23,69.0,57.0,45.2,49.6,46.6,43.6,94,70,49,29.83,29.69,1,0,3,0.00
2013-9-24,74.1,52.7,42.3,53.4,38.2,-99.9,96,73,43,29.83,29.65,4,1,5,0.00
2013-9-25,74.3,60.2,47.4,55.4,51.6,45.8,96,75,49,29.74,29.66,0,0,2,0.00
2013-9-26,74.1,62.0,54.0,60.5,56.4,51.4,96,83,57,29.88,29.72,0,0,1,0.00
2013-9-27,69.8,60.6,51.9,58.8,54.8,50.7,96,82,68,30.04,29.88,0,0,0,0.00
2013-9-28,74.9,57.2,53.5,59.6,42.8,-99.9,97,78,53,30.11,30.02,1,0,3,0.00
2013-9-29,72.0,61.7,52.6,61.9,56.1,51.8,99,83,60,30.02,29.86,1,0,3,0.00
2013-9-30,74.6,56.0,50.6,59.7,42.1,-99.9,98,80,54,29.87,29.75,1,0,3,0.00
2013-10-1,72.7,38.9,50.1,62.3,3.0,-99.9,98,78,48,29.79,29.67,3,0,3,0.00
2013-10-2,74.4,36.9,56.7,64.0,-6.3,-99.9,98,78,52,29.79,29.69,4,1,9,0.00
2013-10-3,76.6,50.1,56.4,63.2,23.2,-99.9,97,78,44,29.91,29.79,4,0,7,0.00
2013-10-4,73.9,40.5,61.2,70.5,0.3,-99.9,96,84,59,29.84,29.74,4,0,6,0.00
2013-10-5,72.8,57.7,64.8,67.3,41.1,-99.9,95,90,75,29.88,29.80,1,0,3,0.00
2013-10-6,67.6,66.1,65.2,67.2,65.5,64.6,100,98,95,29.89,29.82,2,0,3,0.01
2013-10-7,73.6,58.6,58.7,72.1,45.2,-99.9,100,96,86,29.81,29.52,5,1,7,0.52
2013-10-8,68.8,57.8,49.2,53.2,50.1,47.7,96,77,52,30.11,29.76,1,0,2,0.00
2013-10-9,65.1,57.0,51.5,52.0,48.6,44.0,85,74,56,30.19,30.09,1,0,5,0.00
2013-10-10,62.6,57.4,52.8,56.3,52.7,48.5,89,84,80,30.09,29.88,0,0,1,0.00
2013-10-11,69.2,64.2,59.2,63.3,59.1,54.6,87,84,80,29.88,29.81,1,0,2,0.00
2013-10-12,74.3,60.9,59.0,60.6,44.1,-99.9,88,67,41,30.08,29.87,2,0,3,0.00
2013-10-13,66.1,58.9,53.9,56.0,53.1,51.0,90,81,68,30.18,30.08,2,0,10,0.00
2013-10-14,68.8,58.1,52.4,55.3,52.5,49.7,96,83,51,30.15,30.02,1,0,1,0.00
2013-10-15,73.7,59.7,49.3,59.0,53.4,48.8,98,82,54,30.04,29.91,2,0,3,0.00
2013-10-16,66.1,59.2,51.7,60.6,56.1,50.1,96,90,81,29.90,29.70,0,0,2,0.00
2013-10-17,73.5,59.9,61.6,64.8,51.2,-99.9,99,91,65,29.69,29.57,3,1,7,0.00
2013-10-18,70.6,53.0,51.0,51.9,26.8,-99.9,82,53,47,29.75,-32.77,5,-142,14,0.00
2013-10-19,63.9,55.4,43.9,55.1,48.7,42.0,94,79,54,29.76,29.53,3,0,7,0.05
2013-10-20,65.3,55.0,46.9,55.2,44.7,40.7,97,71,43,29.84,29.53,4,1,8,0.00
2013-10-21,68.5,54.7,42.6,49.0,43.9,39.5,90,70,39,29.93,29.76,4,1,9,0.00
2013-10-22,63.7,54.1,46.3,53.9,49.1,43.5,97,84,68,29.76,29.52,5,1,7,0.00
2013-10-23,57.3,47.4,40.5,46.4,40.9,38.7,97,80,54,29.59,29.40,1,0,1,0.00
2013-10-24,44.0,41.3,38.7,38.6,36.7,35.2,87,84,81,29.68,29.53,2,0,4,0.00
2013-10-28,65.1,56.3,47.8,41.0,39.3,36.3,71,54,40,30.10,29.94,6,2,10,0.00
2013-10-29,49.7,45.7,41.1,35.6,34.3,33.0,73,64,57,30.20,30.11,0,0,0,0.00
2013-10-30,57.8,52.6,46.2,52.0,47.8,43.2,96,84,73,30.07,29.96,2,0,3,0.00
2013-10-31,65.3,53.6,42.9,62.0,52.4,42.1,99,96,89,30.01,29.66,1,0,1,0.01
2013-11-1,71.5,65.4,56.4,66.1,58.5,54.7,95,79,58,29.47,29.32,9,3,11,0.19
2013-11-2,68.1,57.1,49.1,54.9,49.3,42.6,98,77,53,29.56,29.40,4,1,4,0.01
2013-11-3,50.9,44.9,36.3,44.8,35.9,22.3,89,71,55,30.22,29.56,2,0,3,0.00
2013-11-4,40.4,35.0,33.0,23.8,22.6,21.6,65,60,50,30.41,30.24,1,0,3,0.00
2013-11-6,58.6,54.8,51.5,49.2,48.8,48.1,88,80,71,30.16,30.10,3,1,3,0.00
2013-11-7,62.6,51.8,41.2,59.2,46.9,33.9,97,84,65,29.70,29.52,4,1,4,0.11
2013-11-8,46.9,40.8,37.9,35.2,33.9,32.8,83,77,60,29.81,29.70,6,1,12,0.00
2013-11-12,38.3,37.1,35.6,30.5,26.9,22.8,81,67,54,29.91,29.89,2,0,3,0.01
2013-11-13,39.8,35.7,31.1,19.0,17.9,16.2,59,48,38,30.14,30.08,2,1,2,0.00
2013-11-14,53.5,9.7,38.9,24.9,-73.8,-99.9,57,9,31,30.00,29.92,5,-788,9,0.00
2013-11-15,51.6,13.0,38.4,30.9,-62.8,-99.9,71,16,45,30.02,29.96,1,-713,1,0.00
2013-11-18,66.1,32.7,58.6,52.1,-25.5,-99.9,78,26,37,29.55,29.38,10,-481,10,0.00
2013-11-19,48.0,19.6,43.3,32.3,-44.5,-99.9,57,23,53,29.83,29.56,5,-575,5,0.00
2013-11-20,45.0,12.6,34.4,22.7,-61.4,-99.9,58,15,37,30.39,30.32,2,-681,4,0.00
2013-11-21,50.2,15.0,30.4,38.8,-54.7,-99.9,87,22,57,30.40,30.17,1,-659,3,0.00
2013-11-22,58.3,30.1,48.4,53.0,-17.6,-99.9,96,47,79,30.16,29.68,2,-454,4,0.04
2013-11-23,54.2,41.9,29.8,50.3,29.0,10.4,90,61,41,29.82,29.67,9,2,11,0.00
2013-11-24,30.9,26.0,22.4,14.2,9.3,4.4,59,50,32,30.13,29.78,7,4,10,0.00
2013-11-25,36.7,28.5,21.6,19.1,15.4,11.2,68,58,45,30.24,30.09,4,2,8,0.00
2013-11-26,35.3,33.9,33.2,23.6,21.0,18.3,63,59,54,30.10,30.05,2,0,2,0.00
2013-11-27,60.9,47.8,41.9,60.6,46.7,40.0,99,96,92,29.20,29.11,2,1,4,0.19
2013-12-2,48.1,41.3,35.3,40.2,37.2,33.7,95,86,74,29.76,29.67,0,0,9,0.00
2013-12-3,53.7,40.1,31.9,42.3,36.2,30.9,97,87,65,29.78,29.65,1,0,1,0.00
2013-12-4,51.1,43.0,33.6,42.3,38.2,32.6,100,84,69,29.92,29.79,0,0,3,0.00
2013-12-5,55.7,50.8,45.4,55.7,50.0,42.0,100,97,85,29.90,29.72,2,0,2,0.04
2013-12-6,56.8,46.5,36.0,56.8,45.9,34.7,100,98,93,29.93,29.65,3,0,4,0.62
2013-12-7,41.2,36.2,31.1,35.7,30.2,20.7,97,80,64,30.28,29.88,3,0,5,0.04
2013-12-8,32.4,30.2,26.0,27.9,22.3,18.8,91,72,64,30.36,30.18,1,0,1,0.00
2013-12-9,37.7,33.7,29.8,37.2,32.8,28.0,98,96,93,30.15,29.75,2,0,5,0.09
2013-12-10,34.4,33.4,32.3,33.6,32.6,31.0,98,97,94,29.77,29.65,3,0,7,0.02
2013-12-11,33.8,30.5,26.3,23.4,21.2,19.6,77,68,61,30.08,29.98,5,3,12,0.07
2013-12-12,29.0,24.6,21.6,19.4,12.7,9.8,74,60,49,30.12,29.92,4,1,6,0.00
2013-12-13,35.5,27.6,19.5,22.0,16.0,9.6,75,62,55,30.10,29.88,8,2,13,0.00
2013-12-14,28.8,23.1,19.2,27.8,19.9,17.3,96,88,74,30.27,29.64,3,0,4,0.00
2013-12-15,38.0,33.3,28.2,34.8,30.3,25.6,97,89,75,29.60,29.31,5,1,6,0.38
2013-12-16,32.5,27.3,18.8,25.8,16.3,12.5,81,63,51,30.00,29.59,8,2,13,0.02
2013-12-17,24.4,21.9,18.0,22.9,19.2,13.0,94,89,79,30.00,29.73,1,0,4,0.00
2013-12-18,37.9,28.9,19.1,27.1,22.4,16.9,92,77,60,29.93,29.70,5,1,8,0.19
2013-12-19,45.7,35.4,24.9,32.5,27.1,20.8,87,72,55,29.95,29.79,5,1,8,0.11
2013-12-20,49.8,42.7,33.8,38.1,35.0,30.9,89,75,62,29.88,29.74,3,0,6,0.00
2013-12-21,60.3,52.3,44.0,54.7,47.7,38.6,97,85,71,29.77,29.67,3,1,4,0.00
2013-12-22,69.7,64.6,57.0,65.5,60.9,54.5,97,88,79,29.74,29.57,8,3,12,0.01
2013-12-23,61.8,53.6,41.1,59.4,52.3,34.1,99,95,76,29.92,29.68,2,0,4,0.74
2013-12-24,41.2,35.1,25.8,33.0,26.2,12.6,92,70,55,30.11,29.86,4,1,7,0.00
2013-12-25,29.0,24.2,18.2,18.2,12.7,9.3,70,61,52,30.29,30.12,4,0,8,0.00
2013-12-26,36.5,30.8,27.0,29.7,25.1,18.6,89,79,70,30.20,29.93,5,1,9,0.00
2013-12-27,39.6,33.8,27.7,27.6,25.4,22.7,83,71,57,30.12,30.03,7,2,8,0.00
2013-12-28,53.9,41.4,30.3,32.7,29.3,25.1,83,64,44,30.05,29.83,8,1,9,0.00
2013-12-29,45.0,41.1,39.2,41.0,36.2,31.2,100,83,63,29.84,29.23,5,0,10,0.94
2013-12-30,41.9,39.8,37.2,38.7,36.2,27.2,94,87,67,29.77,29.46,4,1,4,0.00
2014-1-2,23.6,18.5,11.7,20.0,15.8,9.3,91,89,85,29.74,29.48,3,1,6,0.00